Time;durP1;ratioP1;P1;durP2;ratioP2;P2;SDS_P1;SDS_P2;PMS_P1;PMS_P2;Temp;Humidity;BMP_temperature;BMP_pressure;BME280_temperature;BME280_humidity;BME280_pressure;Samples;Min_cycle;Max_cycle;Signal;HPM_P1;HPM_P2
2022/03/08 00:01:48;;;;;;;12.32;7.82;;;;;;;2.60;42.55;101415.84;4182817;28;20533;-59
2022/03/08 00:03:52;;;;;;;11.38;7.65;;;;;;;2.59;42.50;101416.63;4195545;28;20048;-59
2022/03/08 00:05:56;;;;;;;11.65;7.07;;;;;;;2.63;42.80;101413.47;4209943;28;20052;-60
2022/03/08 00:08:00;;;;;;;8.75;6.97;;;;;;;2.66;42.74;101412.72;4214464;28;20040;-60
2022/03/08 00:10:04;;;;;;;10.82;7.47;;;;;;;2.68;42.09;101412.03;4181209;28;20068;-60
2022/03/08 00:12:08;;;;;;;12.18;7.50;;;;;;;2.63;42.79;101413.47;4182783;28;20036;-60
2022/03/08 00:14:11;;;;;;;11.45;7.55;;;;;;;2.61;42.46;101410.78;4195908;28;20041;-60
2022/03/08 00:16:14;;;;;;;10.98;7.38;;;;;;;2.58;43.02;101407.13;4182377;28;20045;-60
2022/03/08 00:18:18;;;;;;;10.40;7.43;;;;;;;2.57;43.19;101405.34;4191024;28;20032;-60
2022/03/08 00:20:22;;;;;;;13.57;7.70;;;;;;;2.57;43.42;101407.91;4205791;28;20051;-60
2022/03/08 00:22:25;;;;;;;10.57;7.22;;;;;;;2.52;43.60;101406.75;4212945;28;20040;-60
2022/03/08 00:24:29;;;;;;;12.40;7.53;;;;;;;2.48;43.58;101400.53;4181009;28;20116;-60
2022/03/08 00:26:32;;;;;;;14.70;8.68;;;;;;;2.46;43.57;101403.81;4181783;28;20552;-60
2022/03/08 00:28:35;;;;;;;11.82;8.57;;;;;;;2.41;43.77;101404.41;4180875;28;20045;-60
2022/03/08 00:30:40;;;;;;;11.40;7.88;;;;;;;2.44;43.58;101401.16;4168369;28;20623;-59
2022/03/08 00:32:43;;;;;;;10.70;7.88;;;;;;;2.39;43.65;101403.41;4173941;28;20136;-60
2022/03/08 00:34:46;;;;;;;11.38;6.85;;;;;;;2.35;43.67;101398.00;4203345;28;20052;-60
2022/03/08 00:36:50;;;;;;;10.65;7.10;;;;;;;2.38;43.75;101395.63;4178561;28;20095;-60
2022/03/08 00:38:53;;;;;;;10.65;7.57;;;;;;;2.38;43.45;101401.66;4176629;28;20063;-60
2022/03/08 00:40:56;;;;;;;12.52;7.85;;;;;;;2.39;43.55;101394.84;4179841;28;20102;-60
2022/03/08 00:42:58;;;;;;;16.85;7.57;;;;;;;2.43;42.97;101394.25;4208341;28;20052;-60
2022/03/08 00:45:01;;;;;;;12.98;7.43;;;;;;;2.49;42.41;101398.88;4210620;28;20048;-60
2022/03/08 00:47:04;;;;;;;10.65;7.70;;;;;;;2.51;42.55;101385.34;4188534;28;20480;-60
2022/03/08 00:49:07;;;;;;;10.52;7.22;;;;;;;2.52;42.88;101393.94;4175019;28;20048;-60
2022/03/08 00:51:11;;;;;;;9.45;6.57;;;;;;;2.49;42.71;101379.22;4164921;28;20056;-60
2022/03/08 00:53:15;;;;;;;12.63;6.70;;;;;;;2.52;43.23;101387.09;4187949;28;20399;-60
2022/03/08 00:55:19;;;;;;;9.25;6.97;;;;;;;2.48;42.93;101385.13;4178611;28;20045;-60
2022/03/08 00:57:22;;;;;;;11.88;7.72;;;;;;;2.47;42.74;101396.22;4162823;28;20112;-60
2022/03/08 00:59:25;;;;;;;13.25;7.15;;;;;;;2.49;42.39;101392.06;4196600;28;20059;-60
2022/03/08 01:01:28;;;;;;;10.45;7.60;;;;;;;2.50;42.66;101388.69;4182639;28;20041;-60
2022/03/08 01:03:31;;;;;;;9.52;7.03;;;;;;;2.53;42.31;101388.88;4165787;28;20069;-60
2022/03/08 01:05:35;;;;;;;11.57;6.88;;;;;;;2.57;42.68;101383.16;4192163;28;20040;-61
2022/03/08 01:07:39;;;;;;;8.50;6.53;;;;;;;2.53;42.85;101386.31;4176092;28;20064;-60
2022/03/08 01:09:44;;;;;;;8.98;6.25;;;;;;;2.43;42.55;101384.84;4205942;28;20052;-61
2022/03/08 01:11:47;;;;;;;10.40;7.25;;;;;;;2.39;42.50;101388.03;4211402;28;20048;-60
2022/03/08 01:13:50;;;;;;;10.48;6.72;;;;;;;2.45;42.67;101382.38;4183251;28;20123;-60
2022/03/08 01:15:52;;;;;;;13.77;7.65;;;;;;;2.49;42.65;101388.63;4194158;28;20041;-60
2022/03/08 01:17:56;;;;;;;12.35;8.45;;;;;;;2.52;42.38;101370.84;4191528;28;20502;-61
2022/03/08 01:19:59;;;;;;;15.73;8.37;;;;;;;2.52;42.36;101378.53;4215519;28;20047;-61
2022/03/08 01:22:02;;;;;;;12.20;7.70;;;;;;;2.52;42.67;101369.13;4190716;28;20692;-60
2022/03/08 01:24:06;;;;;;;11.07;7.38;;;;;;;2.53;42.70;101370.94;4197003;28;20093;-60
2022/03/08 01:26:10;;;;;;;12.13;7.97;;;;;;;2.52;42.47;101371.72;4209080;28;20036;-61
2022/03/08 01:28:13;;;;;;;11.05;7.97;;;;;;;2.48;42.33;101364.59;4184826;28;20041;-61
2022/03/08 01:30:17;;;;;;;10.20;7.70;;;;;;;2.54;42.30;101361.53;4183504;28;20056;-61
2022/03/08 01:32:20;;;;;;;11.13;7.40;;;;;;;2.50;42.29;101355.34;4191084;28;20502;-60
2022/03/08 01:34:23;;;;;;;14.20;7.82;;;;;;;2.53;42.18;101359.78;4195465;28;20044;-60
2022/03/08 01:36:26;;;;;;;11.95;7.50;;;;;;;2.48;42.56;101361.16;4197327;28;20040;-61
2022/03/08 01:38:29;;;;;;;11.82;8.32;;;;;;;2.43;42.78;101360.88;4208402;28;20039;-60
2022/03/08 01:40:32;;;;;;;11.32;7.75;;;;;;;2.38;42.47;101362.25;4182919;28;20485;-60
2022/03/08 01:42:36;;;;;;;12.50;7.85;;;;;;;2.37;42.67;101355.38;4198051;28;20047;-61
2022/03/08 01:44:41;;;;;;;10.70;7.57;;;;;;;2.31;42.60;101353.31;4186906;28;20040;-60
2022/03/08 01:46:44;;;;;;;;;;;;;;;2.13;42.86;101350.47;4178086;28;20136;-60
2022/03/08 01:48:47;;;;;;;12.27;7.53;;;;;;;2.14;43.00;101343.69;4182941;28;19920;-61
2022/03/08 01:50:50;;;;;;;9.80;7.25;;;;;;;2.14;42.85;101341.13;4183094;28;20040;-60
2022/03/08 01:52:53;;;;;;;11.05;8.45;;;;;;;2.16;42.84;101344.66;4179283;28;20379;-60
2022/03/08 01:54:56;;;;;;;11.32;8.57;;;;;;;2.17;43.20;101338.75;4185629;28;20095;-60
2022/03/08 01:56:59;;;;;;;10.98;7.53;;;;;;;2.17;42.95;101341.31;4193461;28;20036;-60
2022/03/08 01:59:03;;;;;;;13.50;8.23;;;;;;;2.16;43.50;101336.97;4201776;28;20449;-61
2022/03/08 02:01:07;;;;;;;13.13;7.85;;;;;;;2.16;43.04;101337.88;4181539;28;20600;-60
2022/03/08 02:03:10;;;;;;;13.27;8.27;;;;;;;2.09;43.54;101330.59;4192425;28;20032;-60
2022/03/08 02:05:14;;;;;;;11.95;8.00;;;;;;;2.05;43.71;101331.19;4206075;28;20123;-60
2022/03/08 02:07:16;;;;;;;10.50;7.50;;;;;;;2.04;43.45;101327.69;4197341;28;20048;-61
2022/03/08 02:09:19;;;;;;;12.15;8.40;;;;;;;1.98;44.00;101322.19;4197052;28;20052;-60
2022/03/08 02:11:23;;;;;;;12.38;8.48;;;;;;;1.96;44.61;101323.78;4207020;28;20044;-60
2022/03/08 02:13:26;;;;;;;13.25;8.57;;;;;;;1.96;44.97;101322.88;4207894;28;20036;-60
2022/03/08 02:15:30;;;;;;;11.90;8.05;;;;;;;1.92;46.16;101321.81;4196688;28;20036;-61
2022/03/08 02:17:33;;;;;;;11.00;8.48;;;;;;;1.94;46.01;101325.34;4198558;28;20047;-60
2022/03/08 02:19:36;;;;;;;11.68;8.15;;;;;;;1.89;46.57;101327.63;4211034;28;20047;-60
2022/03/08 02:21:40;;;;;;;14.68;8.55;;;;;;;1.93;46.48;101315.91;4187544;28;20048;-60
2022/03/08 02:23:43;;;;;;;12.38;8.10;;;;;;;1.88;46.40;101319.84;4185981;28;20068;-60
2022/03/08 02:25:46;;;;;;;11.10;8.05;;;;;;;1.88;46.78;101314.72;4171649;28;20053;-60
2022/03/08 02:27:51;;;;;;;13.90;8.23;;;;;;;1.97;46.24;101314.41;4191966;28;20339;-60
2022/03/08 02:29:54;;;;;;;14.30;8.35;;;;;;;1.89;46.04;101306.25;4189019;28;20071;-60
2022/03/08 02:31:57;;;;;;;13.68;8.27;;;;;;;1.89;45.87;101303.69;4182672;28;20107;-60
2022/03/08 02:34:00;;;;;;;10.82;7.47;;;;;;;1.93;45.45;101303.09;4172112;28;20040;-60
2022/03/08 02:36:05;;;;;;;11.93;8.18;;;;;;;2.03;44.92;101304.53;4194795;28;20099;-60
2022/03/08 02:38:08;;;;;;;;;;;;;;;1.86;45.07;101300.94;4184019;28;20045;-60
2022/03/08 02:40:14;;;;;;;13.35;7.97;;;;;;;1.88;44.91;101300.25;4182956;28;19920;-60
2022/03/08 02:42:17;;;;;;;12.30;8.18;;;;;;;2.06;43.80;101297.06;4195083;28;20044;-60
2022/03/08 02:44:19;;;;;;;12.32;8.50;;;;;;;2.03;44.23;101297.75;4193661;28;20049;-60
2022/03/08 02:46:22;;;;;;;12.38;8.48;;;;;;;2.12;43.34;101299.09;4210837;28;20058;-60
2022/03/08 02:48:28;;;;;;;12.63;8.43;;;;;;;2.17;43.26;101290.00;4199449;28;20114;-60
2022/03/08 02:50:31;;;;;;;11.05;7.85;;;;;;;2.11;43.36;101299.91;4198609;28;20048;-60
2022/03/08 02:52:34;;;;;;;10.75;7.75;;;;;;;2.06;43.63;101290.22;4182347;28;20075;-60
2022/03/08 02:54:38;;;;;;;12.85;8.13;;;;;;;2.10;43.39;101291.28;4186011;28;20040;-60
2022/03/08 02:56:40;;;;;;;12.20;7.47;;;;;;;2.12;43.75;101293.94;4181210;28;20734;-60
2022/03/08 02:58:45;;;;;;;10.25;7.28;;;;;;;2.14;43.69;101294.94;4200904;28;20319;-60
2022/03/08 03:00:48;;;;;;;9.93;7.32;;;;;;;2.12;43.73;101293.94;4203118;28;20048;-60
2022/03/08 03:02:52;;;;;;;12.05;7.72;;;;;;;2.13;43.17;101301.75;4197660;28;20414;-60
2022/03/08 03:04:55;;;;;;;15.10;8.05;;;;;;;2.17;43.20;101300.28;4193034;28;20037;-60
2022/03/08 03:06:59;;;;;;;13.73;7.95;;;;;;;2.21;43.23;101294.53;4187488;28;20087;-60
2022/03/08 03:09:02;;;;;;;11.85;7.40;;;;;;;2.21;43.33;101294.53;4180457;28;20045;-60
2022/03/08 03:11:06;;;;;;;11.57;7.75;;;;;;;2.19;42.91;101290.97;4192380;28;20075;-60
2022/03/08 03:13:09;;;;;;;14.20;8.03;;;;;;;2.16;43.36;101291.69;4194470;28;20444;-60
2022/03/08 03:15:14;;;;;;;10.65;7.20;;;;;;;2.12;43.04;101288.81;4214882;28;20281;-60
2022/03/08 03:17:17;;;;;;;9.82;7.30;;;;;;;2.12;42.90;101281.13;4200702;28;20383;-60
2022/03/08 03:19:20;;;;;;;10.38;7.60;;;;;;;2.15;43.46;101281.34;4198576;28;20045;-60
2022/03/08 03:21:22;;;;;;;11.95;7.50;;;;;;;2.12;43.15;101278.56;4196888;28;20093;-60
2022/03/08 03:23:25;;;;;;;14.00;7.43;;;;;;;2.12;43.26;101286.25;4203701;28;20517;-60
2022/03/08 03:25:28;;;;;;;10.43;7.57;;;;;;;2.07;43.60;101281.75;4187031;28;20568;-60
2022/03/08 03:27:32;;;;;;;11.93;8.15;;;;;;;2.08;43.06;101277.50;4197768;28;20039;-59
2022/03/08 03:29:35;;;;;;;11.27;8.05;;;;;;;1.98;43.45;101278.59;4204688;28;20044;-60
2022/03/08 03:31:37;;;;;;;11.35;8.23;;;;;;;1.96;43.39;101274.16;4198252;28;20044;-59
2022/03/08 03:33:40;;;;;;;10.48;7.95;;;;;;;1.95;43.52;101275.84;4193644;28;20048;-60
2022/03/08 03:35:43;;;;;;;11.20;7.95;;;;;;;1.89;43.84;101273.78;4181697;28;20049;-60
2022/03/08 03:37:46;;;;;;;14.05;8.13;;;;;;;1.91;43.88;101284.13;4184583;28;20049;-60
2022/03/08 03:39:49;;;;;;;13.60;8.07;;;;;;;1.85;43.84;101278.63;4207469;28;20040;-60
2022/03/08 03:41:52;;;;;;;14.27;7.78;;;;;;;1.83;43.88;101275.97;4180163;28;20495;-60
2022/03/08 03:43:56;;;;;;;12.35;7.68;;;;;;;1.86;44.17;101277.84;4197454;28;20036;-59
2022/03/08 03:45:59;;;;;;;11.52;8.13;;;;;;;1.82;44.44;101284.44;4191285;28;20041;-60
2022/03/08 03:48:03;;;;;;;12.50;8.38;;;;;;;1.88;44.47;101273.69;4188997;28;20090;-59
2022/03/08 03:50:07;;;;;;;10.60;7.70;;;;;;;1.94;44.91;101268.94;4185636;28;20106;-60
2022/03/08 03:52:10;;;;;;;10.73;8.27;;;;;;;1.82;44.48;101269.06;4185223;28;20040;-60
2022/03/08 03:54:13;;;;;;;13.52;9.10;;;;;;;1.74;44.69;101260.91;4193294;28;20036;-59
2022/03/08 03:56:16;;;;;;;12.57;8.30;;;;;;;1.70;45.37;101263.19;4204672;28;20604;-60
2022/03/08 03:58:18;;;;;;;13.50;8.10;;;;;;;1.75;45.38;101261.78;4179788;28;20045;-59
2022/03/08 04:00:22;;;;;;;12.25;8.35;;;;;;;1.79;45.45;101268.00;4196257;28;20098;-59
2022/03/08 04:02:25;;;;;;;11.97;8.50;;;;;;;1.78;45.46;101266.22;4178711;28;20040;-60
2022/03/08 04:04:28;;;;;;;15.50;9.20;;;;;;;1.56;46.66;101264.84;4181221;28;20037;-59
2022/03/08 04:06:32;;;;;;;12.23;7.70;;;;;;;1.47;46.39;101259.16;4197019;28;20097;-59
2022/03/08 04:08:35;;;;;;;13.82;8.32;;;;;;;1.34;45.94;101268.63;4206945;28;20463;-60
2022/03/08 04:10:38;;;;;;;12.68;8.07;;;;;;;1.22;46.55;101268.69;4188813;28;20037;-60
2022/03/08 04:12:41;;;;;;;12.38;8.38;;;;;;;1.03;47.36;101269.19;4181323;28;20102;-60
2022/03/08 04:14:44;;;;;;;12.93;8.93;;;;;;;0.92;47.38;101275.28;4170804;28;20057;-59
2022/03/08 04:16:48;;;;;;;16.73;10.48;;;;;;;0.79;48.10;101278.69;4212332;28;20044;-60
2022/03/08 04:18:57;;;;;;;13.13;9.02;;;;;;;0.73;48.06;101272.28;4202667;28;20119;-60
2022/03/08 04:21:00;;;;;;;16.08;10.48;;;;;;;0.61;48.22;101280.88;4198490;28;20066;-60
2022/03/08 04:23:03;;;;;;;15.73;10.32;;;;;;;0.66;48.41;101279.53;4209299;28;20036;-59
2022/03/08 04:25:07;;;;;;;14.95;9.93;;;;;;;0.67;48.06;101276.22;4202821;28;20095;-59
2022/03/08 04:27:10;;;;;;;14.70;9.73;;;;;;;0.72;48.72;101276.50;4195877;28;20034;-60
2022/03/08 04:29:13;;;;;;;14.02;9.80;;;;;;;0.71;48.90;101272.16;4189282;28;20044;-60
2022/03/08 04:31:15;;;;;;;15.93;9.82;;;;;;;0.59;48.21;101276.47;4188934;28;20496;-60
2022/03/08 04:33:20;;;;;;;16.30;9.95;;;;;;;0.61;48.71;101275.78;4194749;28;20549;-60
2022/03/08 04:35:22;;;;;;;15.65;10.48;;;;;;;0.61;49.60;101272.34;4198142;28;20078;-60
2022/03/08 04:37:25;;;;;;;15.15;10.90;;;;;;;0.67;48.97;101276.22;4203918;28;20041;-59
2022/03/08 04:39:28;;;;;;;13.63;10.10;;;;;;;0.69;49.10;101269.50;4171001;28;20069;-60
2022/03/08 04:41:31;;;;;;;16.90;11.25;;;;;;;0.69;49.12;101272.06;4179388;28;20064;-60
2022/03/08 04:43:34;;;;;;;16.10;11.10;;;;;;;0.72;49.00;101270.53;4183340;28;20048;-60
2022/03/08 04:45:37;;;;;;;15.55;10.77;;;;;;;0.73;48.96;101273.19;4195665;28;20079;-60
2022/03/08 04:47:40;;;;;;;17.42;11.20;;;;;;;0.75;49.04;101276.72;4195999;28;20098;-60
2022/03/08 04:49:44;;;;;;;16.20;10.80;;;;;;;0.72;49.25;101270.53;4200581;28;20067;-60
2022/03/08 04:51:46;;;;;;;16.48;10.68;;;;;;;0.67;49.70;101271.09;4208577;28;20501;-59
2022/03/08 04:53:49;;;;;;;16.73;10.88;;;;;;;0.62;49.21;101276.69;4187675;28;20040;-60
2022/03/08 04:55:52;;;;;;;18.27;11.73;;;;;;;0.58;50.39;101278.13;4194886;28;20041;-60
2022/03/08 04:57:55;;;;;;;16.60;10.85;;;;;;;0.56;49.51;101277.16;4162870;28;20053;-60
2022/03/08 04:59:59;;;;;;;14.93;10.98;;;;;;;0.51;50.73;101278.50;4175862;28;20514;-60
2022/03/08 05:02:04;;;;;;;;;;;;;;;0.50;50.61;101272.50;4175171;28;20041;-60
2022/03/08 05:04:07;;;;;;;19.33;11.73;;;;;;;0.57;49.63;101283.16;4183836;28;20023;-60
2022/03/08 05:06:11;;;;;;;16.60;11.07;;;;;;;0.57;49.83;101281.50;4195052;28;20089;-60
2022/03/08 05:08:15;;;;;;;16.73;10.95;;;;;;;0.54;51.08;101278.72;4193589;28;20477;-60
2022/03/08 05:10:17;;;;;;;17.15;10.93;;;;;;;0.37;51.51;101281.81;4195916;28;20044;-60
2022/03/08 05:12:20;;;;;;;15.18;10.50;;;;;;;0.40;51.28;101287.13;4191290;28;20106;-60
2022/03/08 05:14:23;;;;;;;17.83;11.70;;;;;;;0.29;51.54;101276.16;4192344;28;20033;-60
2022/03/08 05:16:25;;;;;;;15.23;10.60;;;;;;;0.36;51.12;101277.47;4180250;28;20115;-61
2022/03/08 05:18:28;;;;;;;16.92;11.20;;;;;;;0.28;50.49;101277.81;4177758;28;20627;-60
2022/03/08 05:20:31;;;;;;;18.92;11.60;;;;;;;0.17;51.35;101271.94;4189270;28;20045;-60
2022/03/08 05:22:35;;;;;;;17.63;11.45;;;;;;;0.07;51.26;101278.88;4198560;28;21666;-61
2022/03/08 05:24:38;;;;;;;20.50;12.53;;;;;;;0.08;52.19;101275.56;4201361;28;20043;-60
2022/03/08 05:26:40;;;;;;;16.42;11.55;;;;;;;0.19;51.92;101278.84;4213688;28;20071;-60
2022/03/08 05:28:43;;;;;;;19.73;11.60;;;;;;;0.18;51.30;101277.97;4195530;28;20049;-60
2022/03/08 05:30:46;;;;;;;19.17;11.38;;;;;;;0.14;52.22;101274.31;4189038;28;20045;-60
2022/03/08 05:32:49;;;;;;;18.60;11.90;;;;;;;0.14;51.72;101271.75;4196305;28;20037;-60
2022/03/08 05:34:51;;;;;;;17.48;12.15;;;;;;;0.16;51.73;101272.75;4189550;28;20102;-60
2022/03/08 05:36:55;;;;;;;17.75;11.35;;;;;;;0.17;52.16;101271.06;4185065;28;20103;-60
2022/03/08 05:39:00;;;;;;;22.27;12.27;;;;;;;-0.04;53.18;101271.38;4206461;28;20045;-61
2022/03/08 05:41:02;;;;;;;20.33;11.95;;;;;;;0.05;52.99;101271.13;4182142;28;20094;-61
2022/03/08 05:43:05;;;;;;;18.65;11.73;;;;;;;0.11;52.12;101265.53;4177876;28;20562;-61
2022/03/08 05:45:09;;;;;;;20.25;11.73;;;;;;;0.12;52.30;101264.78;4179010;28;20067;-60
2022/03/08 05:47:12;;;;;;;18.50;12.48;;;;;;;0.14;52.35;101265.75;4176810;28;20056;-60
2022/03/08 05:49:14;;;;;;;17.48;11.25;;;;;;;0.20;51.86;101266.16;4195559;28;20048;-60
2022/03/08 05:51:17;;;;;;;17.85;12.15;;;;;;;0.12;52.05;101269.88;4195319;28;20086;-60
2022/03/08 05:53:20;;;;;;;18.67;12.25;;;;;;;0.16;52.49;101264.19;4162443;28;20115;-60
2022/03/08 05:55:24;;;;;;;19.95;12.50;;;;;;;0.22;52.68;101264.63;4188581;28;20510;-61
2022/03/08 05:57:27;;;;;;;18.52;11.85;;;;;;;0.24;52.68;101265.59;4177326;28;20049;-60
2022/03/08 05:59:51;;;;;;;18.98;11.60;;;;;;;0.28;52.56;101253.94;4179630;28;20088;-61
2022/03/08 06:01:54;;;;;;;16.85;11.35;;;;;;;0.33;52.14;101253.44;4174894;28;20096;-60
2022/03/08 06:03:57;;;;;;;17.63;11.85;;;;;;;0.37;52.46;101249.44;4182007;28;20048;-60
2022/03/08 06:06:00;;;;;;;17.63;12.02;;;;;;;0.34;52.71;101262.91;4181119;28;20033;-60
2022/03/08 06:08:04;;;;;;;14.77;11.00;;;;;;;0.38;52.44;101260.53;4183041;28;20044;-62
2022/03/08 06:10:09;;;;;;;17.13;12.27;;;;;;;0.37;52.24;101266.47;4164266;28;20088;-61
2022/03/08 06:12:13;;;;;;;19.05;11.60;;;;;;;0.30;51.80;101272.81;4173625;28;20033;-61
2022/03/08 06:14:15;;;;;;;16.87;11.77;;;;;;;0.24;51.94;101273.28;4182930;28;20047;-60
2022/03/08 06:16:18;;;;;;;18.63;11.55;;;;;;;0.28;51.87;101282.94;4182964;28;20299;-60
2022/03/08 06:18:21;;;;;;;19.17;12.55;;;;;;;0.34;52.70;101280.78;4182215;28;20045;-60
2022/03/08 06:20:24;;;;;;;18.80;11.15;;;;;;;0.34;52.10;101291.03;4174568;28;20041;-60
2022/03/08 06:22:26;;;;;;;19.80;12.27;;;;;;;0.37;53.13;101295.47;4181958;28;20106;-60
2022/03/08 06:24:29;;;;;;;19.38;10.93;;;;;;;0.36;52.10;101292.81;4181881;28;20045;-61
2022/03/08 06:26:32;;;;;;;21.77;12.48;;;;;;;0.40;52.34;101298.25;4182673;28;20045;-60
2022/03/08 06:28:36;;;;;;;20.00;12.07;;;;;;;0.37;52.96;101304.81;4182718;28;20049;-60
2022/03/08 06:30:38;;;;;;;16.73;11.43;;;;;;;0.28;53.47;101307.63;4182778;28;20045;-61
2022/03/08 06:32:41;;;;;;;20.52;12.48;;;;;;;0.04;53.41;101304.25;4193413;28;20040;-61
2022/03/08 06:34:44;;;;;;;18.52;11.85;;;;;;;-0.04;54.08;101317.38;4172639;28;20100;-60
2022/03/08 06:36:47;;;;;;;19.17;11.60;;;;;;;0.00;53.68;101308.28;4182555;28;20040;-61
2022/03/08 06:38:49;;;;;;;19.27;12.18;;;;;;;0.00;53.12;101321.06;4182699;28;20044;-61
2022/03/08 06:40:52;;;;;;;23.08;12.70;;;;;;;-0.10;53.81;101314.38;4179247;28;20107;-60
2022/03/08 06:42:55;;;;;;;20.98;11.70;;;;;;;-0.11;53.32;101327.06;4172088;28;20046;-60
2022/03/08 06:44:59;;;;;;;20.05;12.43;;;;;;;-0.11;54.33;101320.28;4182437;28;20466;-60
2022/03/08 06:47:01;;;;;;;23.00;13.15;;;;;;;-0.10;53.74;101322.06;4164813;28;20050;-60
2022/03/08 06:49:04;;;;;;;20.40;13.27;;;;;;;-0.11;54.22;101320.28;4182567;28;20037;-60
2022/03/08 06:51:07;;;;;;;19.70;13.35;;;;;;;-0.15;53.34;101317.38;4164773;28;20519;-61
2022/03/08 06:53:11;;;;;;;16.08;11.00;;;;;;;-0.05;54.10;101325.81;4181505;28;20410;-60
2022/03/08 06:55:13;;;;;;;21.17;12.65;;;;;;;-0.10;53.69;101326.25;4164548;28;20044;-61
2022/03/08 06:57:17;;;;;;;18.15;12.65;;;;;;;-0.15;53.73;101333.59;4175420;28;20061;-61
2022/03/08 06:59:20;;;;;;;17.98;11.98;;;;;;;-0.29;54.69;101335.19;4179942;28;20379;-60
2022/03/08 07:01:24;;;;;;;21.30;13.27;;;;;;;-0.26;55.01;101324.31;4179987;28;20071;-60
2022/03/08 07:03:27;;;;;;;24.05;13.35;;;;;;;-0.19;54.84;101331.59;4181297;28;20040;-61
2022/03/08 07:05:30;;;;;;;24.73;13.63;;;;;;;-0.12;53.56;101333.81;4174794;28;20347;-60
2022/03/08 07:07:33;;;;;;;21.58;13.95;;;;;;;-0.08;54.30;101325.59;4161144;28;20053;-60
2022/03/08 07:09:36;;;;;;;22.73;14.02;;;;;;;0.01;54.17;101330.47;4156093;28;20104;-61
2022/03/08 07:11:40;;;;;;;19.13;12.25;;;;;;;0.12;52.82;101328.69;4198709;28;20150;-60
2022/03/08 07:13:42;;;;;;;20.90;14.13;;;;;;;0.26;53.17;101327.09;4197906;28;20068;-61
2022/03/08 07:15:46;;;;;;;19.23;12.30;;;;;;;0.34;52.85;101316.59;4198589;28;20052;-61
2022/03/08 07:17:51;;;;;;;24.05;13.00;;;;;;;0.38;53.14;101319.38;4197297;28;20071;-61
2022/03/08 07:19:53;;;;;;;;;;;;;;;0.37;52.65;101322.72;4194924;28;20106;-61
2022/03/08 07:21:56;;;;;;;22.65;13.02;;;;;;;0.51;52.71;101317.78;4173416;28;19920;-60
2022/03/08 07:24:01;;;;;;;17.83;11.60;;;;;;;0.63;52.57;101319.41;4197978;28;20033;-60
2022/03/08 07:26:03;;;;;;;21.08;13.65;;;;;;;0.74;52.64;101317.56;4198501;28;20437;-61
2022/03/08 07:28:06;;;;;;;23.60;13.52;;;;;;;0.92;51.59;101320.47;4197171;28;20055;-61
2022/03/08 07:30:29;;;;;;;21.08;12.85;;;;;;;0.96;52.78;101315.63;4192703;28;20052;-61
2022/03/08 07:32:32;;;;;;;23.23;13.82;;;;;;;1.04;52.13;101322.16;4197589;28;20410;-60
2022/03/08 07:34:36;;;;;;;24.55;12.55;;;;;;;1.14;52.46;101326.25;4188011;28;21222;-61
2022/03/08 07:36:39;;;;;;;22.57;12.73;;;;;;;1.15;51.97;101322.88;4180805;28;20033;-61
2022/03/08 07:38:41;;;;;;;20.25;12.20;;;;;;;1.24;52.02;101325.16;4173718;28;20283;-61
2022/03/08 07:40:44;;;;;;;22.02;13.05;;;;;;;1.26;52.29;101325.28;4181650;28;20041;-61
2022/03/08 07:42:47;;;;;;;17.38;12.00;;;;;;;1.33;51.90;101320.66;4180743;28;20052;-61
2022/03/08 07:44:49;;;;;;;23.15;13.05;;;;;;;1.35;51.92;101331.88;4180304;28;20056;-61
2022/03/08 07:46:52;;;;;;;19.20;12.80;;;;;;;1.34;52.01;101325.00;4198061;28;20046;-61
2022/03/08 07:48:55;;;;;;;22.92;13.40;;;;;;;1.38;51.75;101329.50;4198080;28;20040;-61
2022/03/08 07:51:19;;;;;;;22.02;13.32;;;;;;;1.35;51.27;101324.19;4184610;28;20041;-61
2022/03/08 07:53:22;;;;;;;18.47;12.53;;;;;;;1.42;51.44;101322.00;4184258;28;20037;-61
2022/03/08 07:55:24;;;;;;;20.58;13.13;;;;;;;1.49;51.56;101326.75;4186194;28;20395;-61
2022/03/08 07:57:28;;;;;;;18.83;11.68;;;;;;;1.59;50.60;101326.56;4172932;28;20041;-61
2022/03/08 07:59:51;;;;;;;18.77;11.68;;;;;;;1.62;50.33;101321.66;4164964;28;20142;-61
2022/03/08 08:01:53;;;;;;;19.73;12.30;;;;;;;1.69;50.48;101318.66;4164838;28;20049;-61
2022/03/08 08:03:57;;;;;;;25.40;13.40;;;;;;;1.75;50.13;101318.19;4164207;28;20042;-61
2022/03/08 08:05:59;;;;;;;28.88;13.45;;;;;;;1.96;49.37;101318.66;4165857;28;20045;-61
2022/03/08 08:08:05;;;;;;;19.80;11.43;;;;;;;1.98;49.02;101322.19;4176903;28;20088;-61
2022/03/08 08:10:08;;;;;;;18.45;12.48;;;;;;;2.00;48.65;101318.06;4176876;28;20106;-61
2022/03/08 08:12:11;;;;;;;26.38;12.30;;;;;;;2.28;47.97;101317.22;4162433;28;20149;-61
2022/03/08 08:14:14;;;;;;;26.40;12.68;;;;;;;2.25;47.70;101315.34;4197707;28;20170;-61
2022/03/08 08:16:17;;;;;;;18.92;11.43;;;;;;;2.27;47.39;101325.69;4197604;28;20044;-61
2022/03/08 08:18:21;;;;;;;16.70;10.65;;;;;;;2.34;47.70;101320.16;4179260;28;20542;-61
2022/03/08 08:20:24;;;;;;;19.35;10.25;;;;;;;2.40;47.35;101317.94;4197640;28;20498;-61
2022/03/08 08:22:27;;;;;;;22.35;11.73;;;;;;;2.49;47.29;101314.19;4179984;28;20044;-61
2022/03/08 08:24:31;;;;;;;24.17;13.23;;;;;;;2.56;46.68;101308.63;4179499;28;20037;-61
2022/03/08 08:26:34;;;;;;;22.80;11.93;;;;;;;2.53;46.73;101308.44;4179602;28;20052;-61
2022/03/08 08:28:40;;;;;;;23.08;12.88;;;;;;;2.56;47.18;101313.75;4175002;28;20049;-61
2022/03/08 08:30:43;;;;;;;18.08;13.15;;;;;;;2.62;46.94;101311.56;4180730;28;20499;-61
2022/03/08 08:32:47;;;;;;;18.48;12.35;;;;;;;2.70;46.84;101314.56;4162316;28;20050;-61
2022/03/08 08:34:49;;;;;;;18.45;11.60;;;;;;;2.86;46.51;101308.66;4180831;28;20041;-61
2022/03/08 08:36:52;;;;;;;17.38;11.38;;;;;;;2.99;46.62;101312.84;4168974;28;20041;-61
2022/03/08 08:38:55;;;;;;;17.10;12.23;;;;;;;3.02;46.24;101307.91;4162825;28;20502;-61
2022/03/08 08:40:59;;;;;;;18.70;12.68;;;;;;;3.23;46.08;101305.69;4180748;28;20068;-61
2022/03/08 08:43:05;;;;;;;19.50;11.82;;;;;;;3.27;46.04;101298.25;4180001;28;20049;-61
2022/03/08 08:45:09;;;;;;;17.05;12.32;;;;;;;3.24;46.02;101295.50;4179516;28;20096;-62
2022/03/08 08:47:12;;;;;;;21.17;11.50;;;;;;;3.30;45.61;101300.09;4180561;28;20045;-61
2022/03/08 08:49:15;;;;;;;16.42;11.38;;;;;;;3.40;46.00;101304.97;4180651;28;20037;-61
2022/03/08 08:51:18;;;;;;;16.95;11.57;;;;;;;3.47;45.80;101299.34;4180616;28;20053;-61
2022/03/08 08:53:22;;;;;;;13.98;10.10;;;;;;;3.59;46.67;101293.13;4161846;28;20101;-61
2022/03/08 08:55:25;;;;;;;22.83;12.95;;;;;;;3.83;45.65;101302.22;4180619;28;20095;-61
2022/03/08 08:57:30;;;;;;;20.52;10.20;;;;;;;4.18;44.58;101295.53;4162851;28;20066;-61
2022/03/08 08:59:32;;;;;;;10.47;7.83;;;;;;;4.17;44.49;101293.75;4154732;28;20041;-61
2022/03/08 09:01:35;;;;;;;12.07;7.50;;;;;;;4.45;44.68;101299.47;4179875;28;20108;-61
2022/03/08 09:03:38;;;;;;;9.77;6.53;;;;;;;4.59;44.10;101295.06;4179533;28;20530;-61
2022/03/08 09:05:43;;;;;;;8.85;5.63;;;;;;;4.68;43.95;101300.69;4179010;28;20469;-61
2022/03/08 09:07:45;;;;;;;9.75;7.70;;;;;;;4.88;43.99;101297.44;4180433;28;20564;-61
2022/03/08 09:09:49;;;;;;;10.65;6.00;;;;;;;4.97;43.54;101291.88;4171430;28;20103;-61
2022/03/08 09:11:51;;;;;;;10.02;5.97;;;;;;;5.15;43.45;101291.88;4172479;28;20048;-61
2022/03/08 09:13:56;;;;;;;7.07;4.93;;;;;;;5.20;43.34;101280.13;4178359;28;20044;-61
2022/03/08 09:15:59;;;;;;;11.73;6.75;;;;;;;5.44;41.30;101289.00;4174845;28;20041;-61
2022/03/08 09:18:05;;;;;;;9.98;5.38;;;;;;;5.45;41.83;101283.91;4156499;28;20495;-61
2022/03/08 09:20:08;;;;;;;8.40;5.28;;;;;;;5.48;42.17;101280.59;4175179;28;20060;-61
2022/03/08 09:22:11;;;;;;;8.35;5.03;;;;;;;5.59;41.65;101280.28;4178449;28;20116;-62
2022/03/08 09:24:14;;;;;;;11.63;5.45;;;;;;;5.72;41.24;101280.84;4171999;28;20060;-61
2022/03/08 09:26:16;;;;;;;13.70;6.22;;;;;;;5.99;40.10;101272.69;4180242;28;20045;-62
2022/03/08 09:28:19;;;;;;;9.70;5.07;;;;;;;6.02;39.87;101275.41;4162516;28;20041;-61
2022/03/08 09:30:23;;;;;;;12.55;5.70;;;;;;;6.02;39.74;101273.69;4182286;28;20037;-61
2022/03/08 09:32:26;;;;;;;8.23;5.13;;;;;;;6.00;40.20;101277.00;4182807;28;20553;-61